sensor_id;sensor_type;location;lat;lon;timestamp;pressure;altitude;pressure_sealevel;temperature
74536;BMP180;63013;51.104;-115.370;2022-12-19T00:01:31;87034.80;;;22.60
74536;BMP180;63013;51.104;-115.370;2022-12-19T00:04:03;87037.80;;;22.60
74536;BMP180;63013;51.104;-115.370;2022-12-19T00:06:31;87039.20;;;22.60
74536;BMP180;63013;51.104;-115.370;2022-12-19T00:08:59;87044.00;;;22.60
74536;BMP180;63013;51.104;-115.370;2022-12-19T00:11:28;87047.40;;;22.60
74536;BMP180;63013;51.104;-115.370;2022-12-19T00:13:56;87048.20;;;22.70
74536;BMP180;63013;51.104;-115.370;2022-12-19T00:16:27;87045.00;;;22.70
74536;BMP180;63013;51.104;-115.370;2022-12-19T00:18:57;87040.00;;;22.80
74536;BMP180;63013;51.104;-115.370;2022-12-19T00:21:28;87044.20;;;22.80
74536;BMP180;63013;51.104;-115.370;2022-12-19T00:23:56;87045.20;;;22.80
74536;BMP180;63013;51.104;-115.370;2022-12-19T00:26:25;87051.80;;;22.70
74536;BMP180;63013;51.104;-115.370;2022-12-19T00:28:59;87057.80;;;22.70
74536;BMP180;63013;51.104;-115.370;2022-12-19T00:31:30;87064.80;;;22.70
74536;BMP180;63013;51.104;-115.370;2022-12-19T00:33:58;87069.60;;;22.70
74536;BMP180;63013;51.104;-115.370;2022-12-19T00:36:32;87058.40;;;22.62
74536;BMP180;63013;51.104;-115.370;2022-12-19T00:39:02;87046.40;;;22.60
74536;BMP180;63013;51.104;-115.370;2022-12-19T00:41:33;87047.40;;;22.60
74536;BMP180;63013;51.104;-115.370;2022-12-19T00:44:06;87044.20;;;22.60
74536;BMP180;63013;51.104;-115.370;2022-12-19T00:46:35;87049.40;;;22.60
74536;BMP180;63013;51.104;-115.370;2022-12-19T00:49:05;87049.40;;;22.62
74536;BMP180;63013;51.104;-115.370;2022-12-19T00:51:36;87046.40;;;22.70
74536;BMP180;63013;51.104;-115.370;2022-12-19T00:54:04;87046.40;;;22.70
74536;BMP180;63013;51.104;-115.370;2022-12-19T00:56:34;87045.40;;;22.80
74536;BMP180;63013;51.104;-115.370;2022-12-19T00:59:01;87045.80;;;22.80
74536;BMP180;63013;51.104;-115.370;2022-12-19T01:01:36;87040.40;;;22.90
74536;BMP180;63013;51.104;-115.370;2022-12-19T01:04:08;87043.00;;;22.90
74536;BMP180;63013;51.104;-115.370;2022-12-19T01:06:37;87042.20;;;23.00
74536;BMP180;63013;51.104;-115.370;2022-12-19T01:09:04;87038.40;;;23.00
74536;BMP180;63013;51.104;-115.370;2022-12-19T01:11:32;87041.80;;;23.10
74536;BMP180;63013;51.104;-115.370;2022-12-19T01:14:17;87050.80;;;23.10
74536;BMP180;63013;51.104;-115.370;2022-12-19T01:16:44;87032.20;;;23.00
74536;BMP180;63013;51.104;-115.370;2022-12-19T01:19:12;87035.80;;;23.00
74536;BMP180;63013;51.104;-115.370;2022-12-19T01:21:39;87044.80;;;23.00
74536;BMP180;63013;51.104;-115.370;2022-12-19T01:24:07;87047.20;;;22.98
74536;BMP180;63013;51.104;-115.370;2022-12-19T01:26:34;87046.40;;;22.90
74536;BMP180;63013;51.104;-115.370;2022-12-19T01:29:01;87032.40;;;22.90
74536;BMP180;63013;51.104;-115.370;2022-12-19T01:31:28;87038.00;;;22.90
74536;BMP180;63013;51.104;-115.370;2022-12-19T01:33:58;87042.60;;;22.82
74536;BMP180;63013;51.104;-115.370;2022-12-19T01:36:25;87047.20;;;22.80
74536;BMP180;63013;51.104;-115.370;2022-12-19T01:38:56;87049.40;;;22.80
74536;BMP180;63013;51.104;-115.370;2022-12-19T01:41:24;87045.40;;;22.70
74536;BMP180;63013;51.104;-115.370;2022-12-19T01:44:07;87046.00;;;22.70
74536;BMP180;63013;51.104;-115.370;2022-12-19T01:46:48;87038.40;;;22.70
74536;BMP180;63013;51.104;-115.370;2022-12-19T01:49:32;87045.40;;;22.60
74536;BMP180;63013;51.104;-115.370;2022-12-19T01:52:06;87055.40;;;22.60
74536;BMP180;63013;51.104;-115.370;2022-12-19T01:54:37;87053.40;;;22.60
74536;BMP180;63013;51.104;-115.370;2022-12-19T01:57:12;87044.60;;;22.60
74536;BMP180;63013;51.104;-115.370;2022-12-19T02:00:00;87038.80;;;22.60
74536;BMP180;63013;51.104;-115.370;2022-12-19T02:02:37;87050.60;;;22.60
74536;BMP180;63013;51.104;-115.370;2022-12-19T02:05:05;87042.00;;;22.66
74536;BMP180;63013;51.104;-115.370;2022-12-19T02:07:33;87049.00;;;22.70
74536;BMP180;63013;51.104;-115.370;2022-12-19T02:10:02;87061.40;;;22.70
74536;BMP180;63013;51.104;-115.370;2022-12-19T02:12:35;87058.00;;;22.70
74536;BMP180;63013;51.104;-115.370;2022-12-19T02:15:04;87059.20;;;22.80
74536;BMP180;63013;51.104;-115.370;2022-12-19T02:17:51;87056.60;;;22.80
74536;BMP180;63013;51.104;-115.370;2022-12-19T02:30:10;87058.80;;;23.00
74536;BMP180;63013;51.104;-115.370;2022-12-19T02:33:09;87055.20;;;23.00
74536;BMP180;63013;51.104;-115.370;2022-12-19T02:35:49;87064.80;;;23.02
74536;BMP180;63013;51.104;-115.370;2022-12-19T02:38:40;87065.60;;;23.00
74536;BMP180;63013;51.104;-115.370;2022-12-19T02:43:49;87081.80;;;23.00
74536;BMP180;63013;51.104;-115.370;2022-12-19T02:46:19;87066.00;;;22.94
74536;BMP180;63013;51.104;-115.370;2022-12-19T02:48:48;87076.00;;;22.90
74536;BMP180;63013;51.104;-115.370;2022-12-19T02:51:16;87075.80;;;22.90
74536;BMP180;63013;51.104;-115.370;2022-12-19T02:53:44;87075.40;;;22.80
74536;BMP180;63013;51.104;-115.370;2022-12-19T02:56:39;87079.60;;;22.80
74536;BMP180;63013;51.104;-115.370;2022-12-19T03:05:06;87082.80;;;22.70
74536;BMP180;63013;51.104;-115.370;2022-12-19T03:07:57;87081.40;;;22.70
74536;BMP180;63013;51.104;-115.370;2022-12-19T03:11:01;87078.40;;;22.60
74536;BMP180;63013;51.104;-115.370;2022-12-19T03:16:21;87076.40;;;22.50
74536;BMP180;63013;51.104;-115.370;2022-12-19T03:18:50;87074.60;;;22.50
74536;BMP180;63013;51.104;-115.370;2022-12-19T03:21:47;87085.80;;;22.50
74536;BMP180;63013;51.104;-115.370;2022-12-19T03:24:16;87086.60;;;22.44
74536;BMP180;63013;51.104;-115.370;2022-12-19T03:27:19;87082.60;;;22.40
74536;BMP180;63013;51.104;-115.370;2022-12-19T03:30:03;87079.00;;;22.40
74536;BMP180;63013;51.104;-115.370;2022-12-19T03:32:33;87079.80;;;22.38
74536;BMP180;63013;51.104;-115.370;2022-12-19T03:35:19;87071.40;;;22.30
74536;BMP180;63013;51.104;-115.370;2022-12-19T03:37:51;87071.20;;;22.30
74536;BMP180;63013;51.104;-115.370;2022-12-19T03:40:24;87067.20;;;22.30
74536;BMP180;63013;51.104;-115.370;2022-12-19T03:43:00;87071.20;;;22.20
74536;BMP180;63013;51.104;-115.370;2022-12-19T03:46:00;87072.60;;;22.20
74536;BMP180;63013;51.104;-115.370;2022-12-19T03:48:48;87079.00;;;22.20
74536;BMP180;63013;51.104;-115.370;2022-12-19T03:51:30;87064.00;;;22.12
74536;BMP180;63013;51.104;-115.370;2022-12-19T03:54:07;87060.80;;;22.10
74536;BMP180;63013;51.104;-115.370;2022-12-19T03:59:53;87057.40;;;22.02
74536;BMP180;63013;51.104;-115.370;2022-12-19T04:02:23;87075.60;;;22.00
74536;BMP180;63013;51.104;-115.370;2022-12-19T04:05:02;87066.20;;;22.00
74536;BMP180;63013;51.104;-115.370;2022-12-19T04:07:31;87066.20;;;21.90
74536;BMP180;63013;51.104;-115.370;2022-12-19T04:10:00;87064.80;;;21.90
74536;BMP180;63013;51.104;-115.370;2022-12-19T04:13:04;87066.40;;;21.88
74536;BMP180;63013;51.104;-115.370;2022-12-19T04:18:33;87066.00;;;21.80
74536;BMP180;63013;51.104;-115.370;2022-12-19T04:21:10;87069.80;;;21.78
74536;BMP180;63013;51.104;-115.370;2022-12-19T04:23:56;87068.60;;;21.70
74536;BMP180;63013;51.104;-115.370;2022-12-19T04:26:27;87074.00;;;21.70
74536;BMP180;63013;51.104;-115.370;2022-12-19T04:29:00;87067.20;;;21.70
74536;BMP180;63013;51.104;-115.370;2022-12-19T04:31:29;87074.80;;;21.60
74536;BMP180;63013;51.104;-115.370;2022-12-19T04:33:56;87081.20;;;21.60
74536;BMP180;63013;51.104;-115.370;2022-12-19T04:36:25;87071.00;;;21.60
74536;BMP180;63013;51.104;-115.370;2022-12-19T04:38:52;87070.80;;;21.50
74536;BMP180;63013;51.104;-115.370;2022-12-19T04:41:20;87080.20;;;21.50
74536;BMP180;63013;51.104;-115.370;2022-12-19T04:43:47;87083.60;;;21.46
74536;BMP180;63013;51.104;-115.370;2022-12-19T04:46:14;87089.20;;;21.40
74536;BMP180;63013;51.104;-115.370;2022-12-19T04:48:41;87090.60;;;21.40
74536;BMP180;63013;51.104;-115.370;2022-12-19T04:51:08;87092.60;;;21.40
74536;BMP180;63013;51.104;-115.370;2022-12-19T04:53:36;87096.40;;;21.30
74536;BMP180;63013;51.104;-115.370;2022-12-19T04:56:05;87099.80;;;21.30
74536;BMP180;63013;51.104;-115.370;2022-12-19T04:58:33;87097.00;;;21.30
74536;BMP180;63013;51.104;-115.370;2022-12-19T05:01:05;87099.80;;;21.30
74536;BMP180;63013;51.104;-115.370;2022-12-19T05:03:32;87103.00;;;21.20
74536;BMP180;63013;51.104;-115.370;2022-12-19T05:06:10;87100.00;;;21.20
74536;BMP180;63013;51.104;-115.370;2022-12-19T05:08:39;87103.20;;;21.20
74536;BMP180;63013;51.104;-115.370;2022-12-19T05:11:09;87103.80;;;21.18
74536;BMP180;63013;51.104;-115.370;2022-12-19T05:13:36;87104.80;;;21.10
74536;BMP180;63013;51.104;-115.370;2022-12-19T05:16:09;87093.60;;;21.10
74536;BMP180;63013;51.104;-115.370;2022-12-19T05:18:38;87098.80;;;21.10
74536;BMP180;63013;51.104;-115.370;2022-12-19T05:21:06;87099.40;;;21.00
74536;BMP180;63013;51.104;-115.370;2022-12-19T05:23:34;87107.00;;;21.00
74536;BMP180;63013;51.104;-115.370;2022-12-19T05:26:03;87100.20;;;21.00
74536;BMP180;63013;51.104;-115.370;2022-12-19T05:28:31;87101.20;;;20.90
74536;BMP180;63013;51.104;-115.370;2022-12-19T05:31:15;87108.00;;;20.90
74536;BMP180;63013;51.104;-115.370;2022-12-19T05:33:43;87109.80;;;20.90
74536;BMP180;63013;51.104;-115.370;2022-12-19T05:36:12;87116.60;;;20.80
74536;BMP180;63013;51.104;-115.370;2022-12-19T05:38:39;87116.00;;;20.80
74536;BMP180;63013;51.104;-115.370;2022-12-19T05:41:16;87115.20;;;20.80
74536;BMP180;63013;51.104;-115.370;2022-12-19T05:43:45;87115.60;;;20.72
74536;BMP180;63013;51.104;-115.370;2022-12-19T05:46:15;87122.80;;;20.70
74536;BMP180;63013;51.104;-115.370;2022-12-19T05:48:42;87123.00;;;20.70
74536;BMP180;63013;51.104;-115.370;2022-12-19T05:51:09;87123.20;;;20.70
74536;BMP180;63013;51.104;-115.370;2022-12-19T05:53:38;87119.80;;;20.60
74536;BMP180;63013;51.104;-115.370;2022-12-19T05:56:16;87119.60;;;20.60
74536;BMP180;63013;51.104;-115.370;2022-12-19T05:58:45;87128.00;;;20.60
74536;BMP180;63013;51.104;-115.370;2022-12-19T06:01:23;87124.40;;;20.52
74536;BMP180;63013;51.104;-115.370;2022-12-19T06:03:52;87123.40;;;20.50
74536;BMP180;63013;51.104;-115.370;2022-12-19T06:06:25;87127.40;;;20.50
74536;BMP180;63013;51.104;-115.370;2022-12-19T06:08:54;87124.60;;;20.42
74536;BMP180;63013;51.104;-115.370;2022-12-19T06:11:22;87130.80;;;20.40
74536;BMP180;63013;51.104;-115.370;2022-12-19T06:13:50;87134.80;;;20.40
74536;BMP180;63013;51.104;-115.370;2022-12-19T06:16:20;87130.60;;;20.40
74536;BMP180;63013;51.104;-115.370;2022-12-19T06:18:48;87132.80;;;20.30
74536;BMP180;63013;51.104;-115.370;2022-12-19T06:21:20;87138.60;;;20.30
74536;BMP180;63013;51.104;-115.370;2022-12-19T06:23:48;87141.40;;;20.30
74536;BMP180;63013;51.104;-115.370;2022-12-19T06:26:18;87141.00;;;20.28
74536;BMP180;63013;51.104;-115.370;2022-12-19T06:28:47;87139.80;;;20.20
74536;BMP180;63013;51.104;-115.370;2022-12-19T06:31:15;87149.60;;;20.20
74536;BMP180;63013;51.104;-115.370;2022-12-19T06:33:43;87146.20;;;20.20
74536;BMP180;63013;51.104;-115.370;2022-12-19T06:38:45;87144.80;;;20.10
74536;BMP180;63013;51.104;-115.370;2022-12-19T06:41:13;87139.80;;;20.10
74536;BMP180;63013;51.104;-115.370;2022-12-19T06:44:00;87147.40;;;20.04
74536;BMP180;63013;51.104;-115.370;2022-12-19T06:46:29;87145.80;;;20.00
74536;BMP180;63013;51.104;-115.370;2022-12-19T06:48:56;87145.20;;;20.00
74536;BMP180;63013;51.104;-115.370;2022-12-19T06:51:23;87146.00;;;20.00
74536;BMP180;63013;51.104;-115.370;2022-12-19T06:53:51;87155.60;;;19.90
74536;BMP180;63013;51.104;-115.370;2022-12-19T06:56:19;87151.40;;;19.90
74536;BMP180;63013;51.104;-115.370;2022-12-19T06:58:47;87151.20;;;19.90
74536;BMP180;63013;51.104;-115.370;2022-12-19T07:04:36;87153.20;;;19.80
74536;BMP180;63013;51.104;-115.370;2022-12-19T07:07:04;87147.40;;;19.80
74536;BMP180;63013;51.104;-115.370;2022-12-19T07:09:33;87144.40;;;19.80
74536;BMP180;63013;51.104;-115.370;2022-12-19T07:12:01;87141.80;;;19.76
74536;BMP180;63013;51.104;-115.370;2022-12-19T07:14:28;87130.40;;;19.70
74536;BMP180;63013;51.104;-115.370;2022-12-19T07:16:59;87136.40;;;19.70
74536;BMP180;63013;51.104;-115.370;2022-12-19T07:19:28;87147.80;;;19.70
74536;BMP180;63013;51.104;-115.370;2022-12-19T07:21:56;87151.60;;;19.60
74536;BMP180;63013;51.104;-115.370;2022-12-19T07:24:25;87153.40;;;19.60
74536;BMP180;63013;51.104;-115.370;2022-12-19T07:26:53;87156.20;;;19.60
74536;BMP180;63013;51.104;-115.370;2022-12-19T07:29:20;87154.60;;;19.56
74536;BMP180;63013;51.104;-115.370;2022-12-19T07:31:47;87147.40;;;19.50
74536;BMP180;63013;51.104;-115.370;2022-12-19T07:34:14;87145.00;;;19.50
74536;BMP180;63013;51.104;-115.370;2022-12-19T07:36:41;87147.20;;;19.50
74536;BMP180;63013;51.104;-115.370;2022-12-19T07:39:08;87145.40;;;19.48
74536;BMP180;63013;51.104;-115.370;2022-12-19T07:41:37;87139.40;;;19.44
74536;BMP180;63013;51.104;-115.370;2022-12-19T07:44:06;87141.60;;;19.40
74536;BMP180;63013;51.104;-115.370;2022-12-19T07:46:34;87139.40;;;19.40
74536;BMP180;63013;51.104;-115.370;2022-12-19T07:49:01;87140.20;;;19.40
74536;BMP180;63013;51.104;-115.370;2022-12-19T07:51:29;87136.40;;;19.32
74536;BMP180;63013;51.104;-115.370;2022-12-19T07:53:56;87127.40;;;19.30
74536;BMP180;63013;51.104;-115.370;2022-12-19T07:56:23;87123.20;;;19.30
74536;BMP180;63013;51.104;-115.370;2022-12-19T07:58:50;87132.80;;;19.30
74536;BMP180;63013;51.104;-115.370;2022-12-19T08:01:18;87134.00;;;19.20
74536;BMP180;63013;51.104;-115.370;2022-12-19T08:03:46;87132.40;;;19.20
74536;BMP180;63013;51.104;-115.370;2022-12-19T08:06:13;87132.20;;;19.20
74536;BMP180;63013;51.104;-115.370;2022-12-19T08:08:40;87136.00;;;19.20
74536;BMP180;63013;51.104;-115.370;2022-12-19T08:11:13;87135.60;;;19.10
74536;BMP180;63013;51.104;-115.370;2022-12-19T08:13:43;87135.80;;;19.10
74536;BMP180;63013;51.104;-115.370;2022-12-19T08:16:11;87139.00;;;19.10
74536;BMP180;63013;51.104;-115.370;2022-12-19T08:18:38;87140.00;;;19.08
74536;BMP180;63013;51.104;-115.370;2022-12-19T08:21:08;87140.40;;;19.00
74536;BMP180;63013;51.104;-115.370;2022-12-19T08:23:35;87137.40;;;19.00
74536;BMP180;63013;51.104;-115.370;2022-12-19T08:26:09;87136.00;;;19.00
74536;BMP180;63013;51.104;-115.370;2022-12-19T08:28:37;87138.60;;;18.90
74536;BMP180;63013;51.104;-115.370;2022-12-19T08:31:15;87138.40;;;18.90
74536;BMP180;63013;51.104;-115.370;2022-12-19T08:33:43;87126.00;;;18.90
74536;BMP180;63013;51.104;-115.370;2022-12-19T08:36:14;87131.80;;;18.88
74536;BMP180;63013;51.104;-115.370;2022-12-19T08:38:42;87147.80;;;18.80
74536;BMP180;63013;51.104;-115.370;2022-12-19T08:41:09;87149.00;;;18.80
74536;BMP180;63013;51.104;-115.370;2022-12-19T08:43:37;87146.60;;;18.80
74536;BMP180;63013;51.104;-115.370;2022-12-19T08:46:05;87147.00;;;18.72
74536;BMP180;63013;51.104;-115.370;2022-12-19T08:48:33;87155.00;;;18.70
74536;BMP180;63013;51.104;-115.370;2022-12-19T08:51:04;87150.00;;;18.70
74536;BMP180;63013;51.104;-115.370;2022-12-19T08:53:36;87148.00;;;18.70
74536;BMP180;63013;51.104;-115.370;2022-12-19T08:56:10;87155.60;;;18.70
74536;BMP180;63013;51.104;-115.370;2022-12-19T08:58:38;87158.60;;;18.60
74536;BMP180;63013;51.104;-115.370;2022-12-19T09:01:11;87163.00;;;18.60
74536;BMP180;63013;51.104;-115.370;2022-12-19T09:03:40;87166.60;;;18.60
74536;BMP180;63013;51.104;-115.370;2022-12-19T09:06:10;87171.00;;;18.52
74536;BMP180;63013;51.104;-115.370;2022-12-19T09:08:39;87168.60;;;18.50
74536;BMP180;63013;51.104;-115.370;2022-12-19T09:11:16;87169.20;;;18.50
74536;BMP180;63013;51.104;-115.370;2022-12-19T09:13:45;87167.20;;;18.50
74536;BMP180;63013;51.104;-115.370;2022-12-19T09:16:25;87169.20;;;18.44
74536;BMP180;63013;51.104;-115.370;2022-12-19T09:18:55;87178.60;;;18.40
74536;BMP180;63013;51.104;-115.370;2022-12-19T09:21:27;87184.00;;;18.40
74536;BMP180;63013;51.104;-115.370;2022-12-19T09:23:58;87184.60;;;18.40
74536;BMP180;63013;51.104;-115.370;2022-12-19T09:26:26;87189.00;;;18.32
74536;BMP180;63013;51.104;-115.370;2022-12-19T09:28:53;87194.60;;;18.30
74536;BMP180;63013;51.104;-115.370;2022-12-19T09:31:24;87194.00;;;18.30
74536;BMP180;63013;51.104;-115.370;2022-12-19T09:33:52;87198.80;;;18.24
74536;BMP180;63013;51.104;-115.370;2022-12-19T09:36:22;87202.60;;;18.20
74536;BMP180;63013;51.104;-115.370;2022-12-19T09:38:52;87203.00;;;18.20
74536;BMP180;63013;51.104;-115.370;2022-12-19T09:47:28;87223.60;;;18.10
74536;BMP180;63013;51.104;-115.370;2022-12-19T09:49:58;87221.60;;;18.10
74536;BMP180;63013;51.104;-115.370;2022-12-19T09:52:46;87214.60;;;18.10
74536;BMP180;63013;51.104;-115.370;2022-12-19T09:55:27;87212.60;;;18.00
74536;BMP180;63013;51.104;-115.370;2022-12-19T09:58:06;87227.80;;;18.00
74536;BMP180;63013;51.104;-115.370;2022-12-19T10:00:58;87233.60;;;18.00
74536;BMP180;63013;51.104;-115.370;2022-12-19T10:04:00;87235.00;;;17.90
74536;BMP180;63013;51.104;-115.370;2022-12-19T10:06:29;87236.00;;;17.90
74536;BMP180;63013;51.104;-115.370;2022-12-19T10:08:58;87238.20;;;17.90
74536;BMP180;63013;51.104;-115.370;2022-12-19T10:11:50;87242.20;;;17.90
74536;BMP180;63013;51.104;-115.370;2022-12-19T10:14:43;87247.00;;;17.86
74536;BMP180;63013;51.104;-115.370;2022-12-19T10:20:26;87254.60;;;17.84
74536;BMP180;63013;51.104;-115.370;2022-12-19T10:26:18;87250.20;;;17.80
74536;BMP180;63013;51.104;-115.370;2022-12-19T10:32:28;87259.20;;;17.80
74536;BMP180;63013;51.104;-115.370;2022-12-19T10:34:57;87248.20;;;17.76
74536;BMP180;63013;51.104;-115.370;2022-12-19T10:37:35;87260.20;;;17.70
74536;BMP180;63013;51.104;-115.370;2022-12-19T10:40:19;87265.00;;;17.70
74536;BMP180;63013;51.104;-115.370;2022-12-19T10:45:22;87263.00;;;17.70
74536;BMP180;63013;51.104;-115.370;2022-12-19T10:47:55;87265.40;;;17.70
74536;BMP180;63013;51.104;-115.370;2022-12-19T10:50:28;87270.00;;;17.70
74536;BMP180;63013;51.104;-115.370;2022-12-19T10:53:06;87272.60;;;17.70
74536;BMP180;63013;51.104;-115.370;2022-12-19T10:55:51;87275.80;;;17.70
74536;BMP180;63013;51.104;-115.370;2022-12-19T10:58:37;87283.60;;;17.70
74536;BMP180;63013;51.104;-115.370;2022-12-19T11:01:23;87281.00;;;17.70
74536;BMP180;63013;51.104;-115.370;2022-12-19T11:04:30;87286.20;;;17.70
74536;BMP180;63013;51.104;-115.370;2022-12-19T11:07:18;87285.20;;;17.60
74536;BMP180;63013;51.104;-115.370;2022-12-19T11:09:46;87281.20;;;17.60
74536;BMP180;63013;51.104;-115.370;2022-12-19T11:12:16;87275.80;;;17.60
74536;BMP180;63013;51.104;-115.370;2022-12-19T11:15:14;87272.00;;;17.60
74536;BMP180;63013;51.104;-115.370;2022-12-19T11:17:41;87280.60;;;17.60
74536;BMP180;63013;51.104;-115.370;2022-12-19T11:20:18;87274.00;;;17.60
74536;BMP180;63013;51.104;-115.370;2022-12-19T11:22:55;87272.60;;;17.60
74536;BMP180;63013;51.104;-115.370;2022-12-19T11:25:41;87270.20;;;17.60
74536;BMP180;63013;51.104;-115.370;2022-12-19T11:28:22;87278.20;;;17.60
74536;BMP180;63013;51.104;-115.370;2022-12-19T11:31:22;87275.80;;;17.60
74536;BMP180;63013;51.104;-115.370;2022-12-19T11:34:03;87276.00;;;17.62
74536;BMP180;63013;51.104;-115.370;2022-12-19T11:42:42;87277.00;;;17.60
74536;BMP180;63013;51.104;-115.370;2022-12-19T11:49:07;87287.20;;;17.50
74536;BMP180;63013;51.104;-115.370;2022-12-19T11:54:37;87284.40;;;17.54
74536;BMP180;63013;51.104;-115.370;2022-12-19T11:57:12;87298.00;;;17.60
74536;BMP180;63013;51.104;-115.370;2022-12-19T11:59:39;87298.60;;;17.60
74536;BMP180;63013;51.104;-115.370;2022-12-19T12:05:48;87303.00;;;17.60
74536;BMP180;63013;51.104;-115.370;2022-12-19T12:14:23;87307.20;;;17.70
74536;BMP180;63013;51.104;-115.370;2022-12-19T12:22:53;87320.20;;;17.78
74536;BMP180;63013;51.104;-115.370;2022-12-19T12:37:24;87333.60;;;17.90
74536;BMP180;63013;51.104;-115.370;2022-12-19T12:40:44;87326.80;;;17.90
74536;BMP180;63013;51.104;-115.370;2022-12-19T12:44:06;87335.80;;;17.90
74536;BMP180;63013;51.104;-115.370;2022-12-19T12:46:47;87339.40;;;18.00
74536;BMP180;63013;51.104;-115.370;2022-12-19T12:52:03;87352.40;;;18.10
74536;BMP180;63013;51.104;-115.370;2022-12-19T12:54:38;87353.40;;;18.20
74536;BMP180;63013;51.104;-115.370;2022-12-19T12:57:32;87345.60;;;18.30
74536;BMP180;63013;51.104;-115.370;2022-12-19T13:00:30;87341.20;;;18.30
74536;BMP180;63013;51.104;-115.370;2022-12-19T13:03:17;87346.80;;;18.32
74536;BMP180;63013;51.104;-115.370;2022-12-19T13:06:06;87344.20;;;18.40
74536;BMP180;63013;51.104;-115.370;2022-12-19T13:08:48;87343.80;;;18.40
74536;BMP180;63013;51.104;-115.370;2022-12-19T13:17:07;87344.60;;;18.40
74536;BMP180;63013;51.104;-115.370;2022-12-19T13:25:00;87355.60;;;18.50
74536;BMP180;63013;51.104;-115.370;2022-12-19T13:27:40;87354.80;;;18.60
74536;BMP180;63013;51.104;-115.370;2022-12-19T13:37:59;87352.80;;;18.82
74536;BMP180;63013;51.104;-115.370;2022-12-19T13:41:03;87362.00;;;18.90
74536;BMP180;63013;51.104;-115.370;2022-12-19T13:43:57;87366.60;;;18.90
74536;BMP180;63013;51.104;-115.370;2022-12-19T13:49:30;87371.40;;;18.92
74536;BMP180;63013;51.104;-115.370;2022-12-19T13:51:59;87358.20;;;18.98
74536;BMP180;63013;51.104;-115.370;2022-12-19T13:54:50;87362.00;;;19.00
74536;BMP180;63013;51.104;-115.370;2022-12-19T13:57:28;87368.60;;;19.00
74536;BMP180;63013;51.104;-115.370;2022-12-19T14:00:01;87368.20;;;19.02
74536;BMP180;63013;51.104;-115.370;2022-12-19T14:02:43;87368.80;;;19.10
74536;BMP180;63013;51.104;-115.370;2022-12-19T14:05:36;87365.40;;;19.10
74536;BMP180;63013;51.104;-115.370;2022-12-19T14:08:06;87364.60;;;19.20
74536;BMP180;63013;51.104;-115.370;2022-12-19T14:10:39;87369.00;;;19.20
74536;BMP180;63013;51.104;-115.370;2022-12-19T14:13:18;87366.00;;;19.30
74536;BMP180;63013;51.104;-115.370;2022-12-19T14:16:05;87368.60;;;19.40
74536;BMP180;63013;51.104;-115.370;2022-12-19T14:18:33;87369.60;;;19.40
74536;BMP180;63013;51.104;-115.370;2022-12-19T14:21:22;87371.20;;;19.40
74536;BMP180;63013;51.104;-115.370;2022-12-19T14:24:19;87369.80;;;19.40
74536;BMP180;63013;51.104;-115.370;2022-12-19T14:27:01;87366.40;;;19.40
74536;BMP180;63013;51.104;-115.370;2022-12-19T14:29:41;87372.60;;;19.50
74536;BMP180;63013;51.104;-115.370;2022-12-19T14:32:10;87370.20;;;19.50
74536;BMP180;63013;51.104;-115.370;2022-12-19T14:34:37;87379.80;;;19.56
74536;BMP180;63013;51.104;-115.370;2022-12-19T14:37:05;87383.60;;;19.60
74536;BMP180;63013;51.104;-115.370;2022-12-19T14:39:34;87390.60;;;19.70
74536;BMP180;63013;51.104;-115.370;2022-12-19T14:42:13;87391.60;;;19.70
74536;BMP180;63013;51.104;-115.370;2022-12-19T14:44:59;87393.20;;;19.80
74536;BMP180;63013;51.104;-115.370;2022-12-19T14:47:35;87396.20;;;19.82
74536;BMP180;63013;51.104;-115.370;2022-12-19T14:50:35;87395.20;;;19.90
74536;BMP180;63013;51.104;-115.370;2022-12-19T14:53:20;87394.00;;;19.90
74536;BMP180;63013;51.104;-115.370;2022-12-19T14:56:04;87399.00;;;19.98
74536;BMP180;63013;51.104;-115.370;2022-12-19T14:58:36;87399.00;;;20.00
74536;BMP180;63013;51.104;-115.370;2022-12-19T15:01:20;87407.40;;;20.00
74536;BMP180;63013;51.104;-115.370;2022-12-19T15:04:02;87410.20;;;20.02
74536;BMP180;63013;51.104;-115.370;2022-12-19T15:06:31;87409.00;;;20.10
74536;BMP180;63013;51.104;-115.370;2022-12-19T15:09:03;87413.20;;;20.10
74536;BMP180;63013;51.104;-115.370;2022-12-19T15:11:45;87404.00;;;20.10
74536;BMP180;63013;51.104;-115.370;2022-12-19T15:14:44;87417.80;;;20.10
74536;BMP180;63013;51.104;-115.370;2022-12-19T15:17:23;87417.00;;;20.18
74536;BMP180;63013;51.104;-115.370;2022-12-19T15:19:50;87418.20;;;20.20
74536;BMP180;63013;51.104;-115.370;2022-12-19T15:22:18;87420.40;;;20.20
74536;BMP180;63013;51.104;-115.370;2022-12-19T15:24:46;87425.20;;;20.20
74536;BMP180;63013;51.104;-115.370;2022-12-19T15:27:16;87430.20;;;20.30
74536;BMP180;63013;51.104;-115.370;2022-12-19T15:29:44;87434.40;;;20.30
74536;BMP180;63013;51.104;-115.370;2022-12-19T15:32:16;87438.40;;;20.30
74536;BMP180;63013;51.104;-115.370;2022-12-19T15:34:44;87440.40;;;20.34
74536;BMP180;63013;51.104;-115.370;2022-12-19T15:37:13;87444.20;;;20.40
74536;BMP180;63013;51.104;-115.370;2022-12-19T15:39:42;87452.40;;;20.40
74536;BMP180;63013;51.104;-115.370;2022-12-19T15:42:26;87448.60;;;20.40
74536;BMP180;63013;51.104;-115.370;2022-12-19T15:44:54;87459.40;;;20.42
74536;BMP180;63013;51.104;-115.370;2022-12-19T15:47:36;87464.60;;;20.50
74536;BMP180;63013;51.104;-115.370;2022-12-19T15:50:26;87454.60;;;20.50
74536;BMP180;63013;51.104;-115.370;2022-12-19T15:52:57;87455.40;;;20.60
74536;BMP180;63013;51.104;-115.370;2022-12-19T15:55:29;87467.40;;;20.60
74536;BMP180;63013;51.104;-115.370;2022-12-19T15:58:04;87471.00;;;20.70
74536;BMP180;63013;51.104;-115.370;2022-12-19T16:00:34;87466.80;;;20.72
74536;BMP180;63013;51.104;-115.370;2022-12-19T16:03:02;87469.40;;;20.80
74536;BMP180;63013;51.104;-115.370;2022-12-19T16:05:29;87479.40;;;20.80
74536;BMP180;63013;51.104;-115.370;2022-12-19T16:07:57;87484.20;;;20.80